Time,TemperatureF,DewpointF,PressureIn,WindDirection,WindDirectionDegrees,WindSpeedMPH,WindSpeedGustMPH,Humidity,HourlyPrecipIn,Conditions,Clouds,dailyrainin,SoftwareType,DateUTC
2013-07-14 00:14:00,72.1,67.0,30.05,South,180,0.0,2.0,84,0.00,,,0.00,weatherlink.com 1.10,2013-07-14 04:14:00,
2013-07-14 00:29:00,72.0,67.0,30.05,South,180,1.0,4.0,84,0.00,,,0.00,weatherlink.com 1.10,2013-07-14 04:29:00,
2013-07-14 00:44:00,72.0,67.0,30.05,South,180,1.0,2.0,84,0.00,,,0.00,weatherlink.com 1.10,2013-07-14 04:44:00,
2013-07-14 00:59:00,72.1,67.0,30.05,East,86,0.0,7.0,84,0.00,,,0.00,weatherlink.com 1.10,2013-07-14 04:59:00,
2013-07-14 01:14:00,71.9,67.0,30.05,ESE,115,3.0,4.0,84,0.00,,,0.00,weatherlink.com 1.10,2013-07-14 05:14:00,
2013-07-14 01:29:00,71.9,67.0,30.04,South,179,0.0,4.0,84,0.00,,,0.00,weatherlink.com 1.10,2013-07-14 05:29:00,
2013-07-14 01:44:00,71.7,67.0,30.04,South,182,0.0,1.0,85,0.00,,,0.00,weatherlink.com 1.10,2013-07-14 05:44:00,
2013-07-14 01:59:00,71.3,67.0,30.04,SE,142,0.0,1.0,86,0.00,,,0.00,weatherlink.com 1.10,2013-07-14 05:59:00,
2013-07-14 02:14:00,71.3,67.0,30.04,ENE,67,0.0,4.0,85,0.00,,,0.00,weatherlink.com 1.10,2013-07-14 06:14:00,
2013-07-14 02:29:00,71.5,67.0,30.03,SSW,203,0.0,2.0,85,0.00,,,0.00,weatherlink.com 1.10,2013-07-14 06:29:00,
2013-07-14 02:44:00,71.3,67.0,30.03,SSW,203,0.0,0.0,86,0.00,,,0.00,weatherlink.com 1.10,2013-07-14 06:44:00,
2013-07-14 02:59:00,70.9,67.0,30.04,SSW,203,0.0,0.0,87,0.00,,,0.00,weatherlink.com 1.10,2013-07-14 06:59:00,
2013-07-14 03:14:00,70.6,67.0,30.03,SSW,203,0.0,0.0,88,0.00,,,0.00,weatherlink.com 1.10,2013-07-14 07:14:00,
2013-07-14 03:29:00,70.4,67.0,30.03,NE,55,0.0,2.0,90,0.00,,,0.00,weatherlink.com 1.10,2013-07-14 07:29:00,
2013-07-14 03:45:00,70.1,67.0,30.03,NE,55,0.0,0.0,89,0.00,,,0.00,weatherlink.com 1.10,2013-07-14 07:45:00,
2013-07-14 04:00:00,69.8,67.0,30.04,NE,55,0.0,0.0,91,0.00,,,0.00,weatherlink.com 1.10,2013-07-14 08:00:00,
2013-07-14 04:15:00,69.4,67.0,30.04,NE,55,0.0,0.0,91,0.00,,,0.00,weatherlink.com 1.10,2013-07-14 08:15:00,
2013-07-14 04:30:00,69.3,67.0,30.04,NE,55,0.0,0.0,92,0.00,,,0.00,weatherlink.com 1.10,2013-07-14 08:30:00,
2013-07-14 04:45:00,69.3,67.0,30.03,NNE,17,0.0,1.0,93,0.00,,,0.00,weatherlink.com 1.10,2013-07-14 08:45:00,
2013-07-14 05:00:00,69.3,67.0,30.03,NE,48,0.0,1.0,93,0.00,,,0.00,weatherlink.com 1.10,2013-07-14 09:00:00,
2013-07-14 05:15:00,69.0,67.0,30.04,NE,48,0.0,1.0,93,0.00,,,0.00,weatherlink.com 1.10,2013-07-14 09:15:00,
2013-07-14 05:30:00,69.0,68.0,30.04,NW,322,0.0,2.0,95,0.07,,,0.07,weatherlink.com 1.10,2013-07-14 09:30:00,
2013-07-14 05:45:00,68.7,68.0,30.05,South,189,0.0,2.0,96,0.26,,,0.26,weatherlink.com 1.10,2013-07-14 09:45:00,
2013-07-14 06:00:00,68.6,68.0,30.05,ENE,71,0.0,3.0,96,0.32,,,0.32,weatherlink.com 1.10,2013-07-14 10:00:00,
2013-07-14 06:15:00,68.6,68.0,30.06,ENE,71,0.0,0.0,97,0.32,,,0.32,weatherlink.com 1.10,2013-07-14 10:15:00,
2013-07-14 06:30:00,68.7,68.0,30.06,ENE,71,0.0,1.0,97,0.26,,,0.33,weatherlink.com 1.10,2013-07-14 10:30:00,
2013-07-14 06:45:00,68.7,68.0,30.07,ENE,71,0.0,0.0,97,0.06,,,0.33,weatherlink.com 1.10,2013-07-14 10:45:00,
2013-07-14 07:00:00,68.7,68.0,30.07,ENE,71,0.0,0.0,98,0.01,,,0.33,weatherlink.com 1.10,2013-07-14 11:00:00,
2013-07-14 07:15:00,68.8,68.0,30.08,ESE,108,0.0,1.0,98,0.01,,,0.33,weatherlink.com 1.10,2013-07-14 11:15:00,
2013-07-14 07:30:00,68.8,68.0,30.07,ESE,108,0.0,0.0,98,0.00,,,0.33,weatherlink.com 1.10,2013-07-14 11:30:00,
2013-07-14 07:46:00,68.9,68.0,30.07,NE,40,0.0,3.0,98,0.00,,,0.33,weatherlink.com 1.10,2013-07-14 11:46:00,
2013-07-14 08:00:00,69.0,69.0,30.08,ENE,75,0.0,0.0,98,0.00,,,0.33,weatherlink.com 1.10,2013-07-14 12:00:00,
2013-07-14 08:15:00,69.2,69.0,30.08,NE,51,0.0,1.0,98,0.00,,,0.33,weatherlink.com 1.10,2013-07-14 12:15:00,
2013-07-14 08:30:00,69.3,69.0,30.09,ESE,115,0.0,2.0,98,0.00,,,0.33,weatherlink.com 1.10,2013-07-14 12:30:00,
2013-07-14 08:45:00,69.3,69.0,30.09,NW,313,0.0,5.0,97,0.00,,,0.33,weatherlink.com 1.10,2013-07-14 12:45:00,
2013-07-14 09:00:00,69.6,69.0,30.09,East,88,0.0,1.0,97,0.00,,,0.33,weatherlink.com 1.10,2013-07-14 13:00:00,
2013-07-14 09:15:00,70.2,69.0,30.10,East,83,0.0,3.0,97,0.00,,,0.33,weatherlink.com 1.10,2013-07-14 13:15:00,
2013-07-14 09:30:00,70.6,70.0,30.10,SSW,196,0.0,1.0,97,0.00,,,0.33,weatherlink.com 1.10,2013-07-14 13:30:00,
2013-07-14 09:45:00,70.7,70.0,30.11,East,99,0.0,2.0,96,0.00,,,0.33,weatherlink.com 1.10,2013-07-14 13:45:00,
2013-07-14 10:00:00,71.1,70.0,30.11,East,82,0.0,1.0,96,0.00,,,0.33,weatherlink.com 1.10,2013-07-14 14:00:00,
2013-07-14 10:15:00,71.6,70.0,30.11,ENE,61,0.0,1.0,96,0.00,,,0.33,weatherlink.com 1.10,2013-07-14 14:15:00,
2013-07-14 10:30:00,72.0,70.0,30.11,SE,146,0.0,2.0,94,0.00,,,0.33,weatherlink.com 1.10,2013-07-14 14:30:00,
2013-07-14 10:45:00,71.9,70.0,30.10,NNE,27,0.0,1.0,94,0.00,,,0.33,weatherlink.com 1.10,2013-07-14 14:45:00,
2013-07-14 11:00:00,73.3,72.0,30.11,East,101,0.0,2.0,94,0.00,,,0.33,weatherlink.com 1.10,2013-07-14 15:00:00,
2013-07-14 11:15:00,74.7,72.0,30.11,WSW,256,2.0,2.0,92,0.00,,,0.33,weatherlink.com 1.10,2013-07-14 15:15:00,
2013-07-14 11:30:00,75.4,72.0,30.11,ESE,111,1.0,4.0,89,0.00,,,0.33,weatherlink.com 1.10,2013-07-14 15:30:00,
2013-07-14 11:45:00,75.8,72.0,30.11,ENE,67,0.0,2.0,87,0.00,,,0.33,weatherlink.com 1.10,2013-07-14 15:45:00,
2013-07-14 12:00:00,75.2,72.0,30.11,West,261,0.0,5.0,88,0.00,,,0.33,weatherlink.com 1.10,2013-07-14 16:00:00,
2013-07-14 12:15:00,75.2,72.0,30.11,WSW,254,0.0,3.0,89,0.00,,,0.33,weatherlink.com 1.10,2013-07-14 16:15:00,
2013-07-14 12:30:00,75.0,72.0,30.11,West,267,0.0,2.0,90,0.00,,,0.33,weatherlink.com 1.10,2013-07-14 16:30:00,
2013-07-14 12:46:00,74.9,72.0,30.11,North,5,0.0,2.0,91,0.00,,,0.33,weatherlink.com 1.10,2013-07-14 16:46:00,
2013-07-14 13:01:00,74.8,72.0,30.12,NW,311,0.0,1.0,91,0.00,,,0.33,weatherlink.com 1.10,2013-07-14 17:01:00,
2013-07-14 13:16:00,75.1,72.0,30.12,East,94,0.0,1.0,91,0.00,,,0.33,weatherlink.com 1.10,2013-07-14 17:16:00,
2013-07-14 13:31:00,75.7,73.0,30.12,East,80,0.0,1.0,90,0.00,,,0.33,weatherlink.com 1.10,2013-07-14 17:31:00,
2013-07-14 13:46:00,77.3,73.0,30.12,SW,219,2.0,3.0,87,0.01,,,0.34,weatherlink.com 1.10,2013-07-14 17:46:00,
2013-07-14 14:01:00,77.5,73.0,30.11,ENE,67,0.0,4.0,87,0.01,,,0.34,weatherlink.com 1.10,2013-07-14 18:01:00,
2013-07-14 14:16:00,79.6,75.0,30.10,SSW,194,0.0,5.0,85,0.01,,,0.34,weatherlink.com 1.10,2013-07-14 18:16:00,
2013-07-14 14:31:00,81.4,74.0,30.10,SW,217,1.0,4.0,78,0.01,,,0.34,weatherlink.com 1.10,2013-07-14 18:31:00,
2013-07-14 14:46:00,81.6,73.0,30.10,ESE,107,1.0,5.0,75,0.00,,,0.34,weatherlink.com 1.10,2013-07-14 18:46:00,
2013-07-14 15:01:00,80.2,73.0,30.10,ESE,109,0.0,2.0,78,0.00,,,0.34,weatherlink.com 1.10,2013-07-14 19:01:00,
2013-07-14 15:16:00,80.9,74.0,30.10,South,175,0.0,4.0,79,0.00,,,0.34,weatherlink.com 1.10,2013-07-14 19:16:00,
2013-07-14 15:31:00,81.8,74.0,30.09,ESE,119,0.0,4.0,78,0.00,,,0.34,weatherlink.com 1.10,2013-07-14 19:31:00,
2013-07-14 15:46:00,80.4,75.0,30.09,ENE,61,1.0,2.0,82,0.03,,,0.37,weatherlink.com 1.10,2013-07-14 19:46:00,
2013-07-14 16:01:00,77.0,73.0,30.09,SSE,162,0.0,5.0,88,0.06,,,0.40,weatherlink.com 1.10,2013-07-14 20:01:00,
2013-07-14 16:16:00,76.6,74.0,30.08,ENE,65,0.0,2.0,90,0.06,,,0.40,weatherlink.com 1.10,2013-07-14 20:16:00,
2013-07-14 16:31:00,75.9,73.0,30.08,SSW,202,0.0,4.0,91,0.08,,,0.42,weatherlink.com 1.10,2013-07-14 20:31:00,
2013-07-14 16:46:00,75.9,74.0,30.07,SW,236,0.0,1.0,93,0.04,,,0.42,weatherlink.com 1.10,2013-07-14 20:46:00,
2013-07-14 17:01:00,76.4,75.0,30.07,ESE,109,0.0,0.0,94,0.02,,,0.42,weatherlink.com 1.10,2013-07-14 21:01:00,
2013-07-14 17:16:00,77.9,76.0,30.07,ESE,117,0.0,2.0,92,0.02,,,0.42,weatherlink.com 1.10,2013-07-14 21:16:00,
2013-07-14 17:31:00,79.2,75.0,30.07,NNE,33,0.0,3.0,87,0.00,,,0.42,weatherlink.com 1.10,2013-07-14 21:31:00,
2013-07-14 17:46:00,76.9,74.0,30.08,South,175,0.0,5.0,89,0.06,,,0.48,weatherlink.com 1.10,2013-07-14 21:46:00,
2013-07-14 18:01:00,75.5,73.0,30.07,ENE,78,0.0,2.0,92,0.06,,,0.48,weatherlink.com 1.10,2013-07-14 22:01:00,
2013-07-14 18:16:00,75.5,73.0,30.07,ENE,64,0.0,1.0,93,0.06,,,0.48,weatherlink.com 1.10,2013-07-14 22:16:00,
2013-07-14 18:31:00,75.2,73.0,30.07,ENE,67,0.0,2.0,93,0.06,,,0.48,weatherlink.com 1.10,2013-07-14 22:31:00,
2013-07-14 18:46:00,75.6,73.0,30.07,East,96,0.0,3.0,92,0.00,,,0.48,weatherlink.com 1.10,2013-07-14 22:46:00,
2013-07-14 19:01:00,75.5,73.0,30.08,WSW,248,0.0,3.0,91,0.00,,,0.48,weatherlink.com 1.10,2013-07-14 23:01:00,
2013-07-14 19:16:00,75.6,73.0,30.08,East,86,0.0,3.0,91,0.00,,,0.48,weatherlink.com 1.10,2013-07-14 23:16:00,
2013-07-14 19:31:00,75.9,73.0,30.08,ENE,58,1.0,3.0,90,0.00,,,0.48,weatherlink.com 1.10,2013-07-14 23:31:00,
2013-07-14 19:46:00,76.4,73.0,30.09,South,190,2.0,3.0,89,0.00,,,0.48,weatherlink.com 1.10,2013-07-14 23:46:00,
2013-07-14 20:01:00,75.8,73.0,30.10,West,260,0.0,4.0,90,0.00,,,0.48,weatherlink.com 1.10,2013-07-15 00:01:00,
2013-07-14 20:16:00,75.4,72.0,30.10,West,275,0.0,3.0,90,0.00,,,0.48,weatherlink.com 1.10,2013-07-15 00:16:00,
2013-07-14 20:31:00,75.1,72.0,30.11,North,5,0.0,1.0,91,0.00,,,0.48,weatherlink.com 1.10,2013-07-15 00:31:00,
2013-07-14 20:46:00,74.9,73.0,30.11,SE,135,0.0,5.0,92,0.00,,,0.48,weatherlink.com 1.10,2013-07-15 00:46:00,
2013-07-14 21:01:00,74.6,72.0,30.11,East,91,0.0,6.0,90,0.00,,,0.48,weatherlink.com 1.10,2013-07-15 01:01:00,
2013-07-14 21:16:00,74.3,71.0,30.12,East,94,3.0,5.0,90,0.00,,,0.48,weatherlink.com 1.10,2013-07-15 01:16:00,
2013-07-14 21:31:00,73.9,71.0,30.13,NE,54,2.0,4.0,90,0.00,,,0.48,weatherlink.com 1.10,2013-07-15 01:31:00,
2013-07-14 21:46:00,73.6,71.0,30.13,West,279,0.0,3.0,90,0.00,,,0.48,weatherlink.com 1.10,2013-07-15 01:46:00,
2013-07-14 22:01:00,73.5,71.0,30.14,East,81,0.0,4.0,90,0.00,,,0.48,weatherlink.com 1.10,2013-07-15 02:01:00,
2013-07-14 22:16:00,73.6,71.0,30.14,SE,143,0.0,7.0,90,0.00,,,0.48,weatherlink.com 1.10,2013-07-15 02:16:00,
2013-07-14 22:31:00,73.7,70.0,30.15,WSW,250,0.0,8.0,89,0.00,,,0.48,weatherlink.com 1.10,2013-07-15 02:31:00,
2013-07-14 22:46:00,73.5,70.0,30.15,SW,222,4.0,8.0,89,0.00,,,0.48,weatherlink.com 1.10,2013-07-15 02:46:00,
2013-07-14 23:01:00,73.1,70.0,30.15,NE,50,1.0,5.0,90,0.00,,,0.48,weatherlink.com 1.10,2013-07-15 03:01:00,
2013-07-14 23:16:00,72.7,70.0,30.15,South,176,5.0,9.0,91,0.00,,,0.48,weatherlink.com 1.10,2013-07-15 03:16:00,
2013-07-14 23:31:00,72.4,70.0,30.16,ESE,109,1.0,3.0,92,0.00,,,0.48,weatherlink.com 1.10,2013-07-15 03:31:00,
2013-07-14 23:46:00,72.3,70.0,30.16,SE,146,0.0,6.0,92,0.00,,,0.48,weatherlink.com 1.10,2013-07-15 03:46:00,